createdAt,value
2022-11-12T00:01:39.328Z,16.95
2022-11-12T00:07:11.254Z,15.23
2022-11-12T00:12:43.242Z,14.88
2022-11-12T00:15:29.317Z,16.38
2022-11-12T00:21:38.130Z,14.88
2022-11-12T00:27:09.777Z,14.63
2022-11-12T00:32:41.237Z,14.88
2022-11-12T00:35:27.120Z,14.60
2022-11-12T00:41:01.961Z,15.45
2022-11-12T00:43:48.279Z,14.32
2022-11-12T00:46:34.419Z,13.15
2022-11-12T00:49:20.146Z,15.93
2022-11-12T00:52:06.095Z,16.67
2022-11-12T00:57:37.851Z,15.45
2022-11-12T01:00:24.116Z,15.20
2022-11-12T01:03:10.031Z,15.90
2022-11-12T01:06:02.061Z,14.90
2022-11-12T01:08:49.880Z,14.20
2022-11-12T01:11:36.952Z,14.13
2022-11-12T01:14:23.099Z,14.27
2022-11-12T01:17:09.002Z,14.63
2022-11-12T01:22:41.048Z,15.00
2022-11-12T01:25:26.913Z,17.10
2022-11-12T01:30:58.678Z,16.73
2022-11-12T01:33:47.741Z,16.50
2022-11-12T01:36:37.384Z,15.50
2022-11-12T01:39:23.642Z,14.90
2022-11-12T01:42:10.296Z,15.13
2022-11-12T01:44:56.319Z,14.35
2022-11-12T01:47:42.761Z,15.02
2022-11-12T01:50:34.105Z,15.43
2022-11-12T01:53:24.939Z,15.50
2022-11-12T01:56:11.754Z,14.95
2022-11-12T01:59:05.198Z,15.65
2022-11-12T02:01:51.242Z,14.23
2022-11-12T02:04:40.243Z,14.77
2022-11-12T02:07:26.886Z,14.23
2022-11-12T02:10:14.665Z,13.77
2022-11-12T02:13:19.247Z,13.82
2022-11-12T02:16:07.377Z,13.23
2022-11-12T02:18:53.374Z,12.40
2022-11-12T02:24:25.639Z,11.98
2022-11-12T02:27:11.960Z,11.75
2022-11-12T02:29:57.965Z,11.48
2022-11-12T02:32:44.003Z,11.07
2022-11-12T02:35:30.439Z,10.45
2022-11-12T02:38:16.389Z,10.40
2022-11-12T02:41:02.484Z,11.05
2022-11-12T02:43:48.264Z,10.95
2022-11-12T02:46:34.085Z,10.68
2022-11-12T02:49:19.914Z,11.57
2022-11-12T02:52:05.797Z,10.98
2022-11-12T02:57:38.804Z,10.48
2022-11-12T03:00:25.222Z,9.77
2022-11-12T03:03:11.454Z,11.18
2022-11-12T03:06:01.825Z,10.30
2022-11-12T03:08:47.497Z,10.82
2022-11-12T03:11:33.034Z,10.63
2022-11-12T03:14:19.031Z,10.43
2022-11-12T03:17:05.345Z,10.27
2022-11-12T03:19:51.469Z,10.25
2022-11-12T03:22:38.481Z,10.93
2022-11-12T03:25:26.341Z,10.88
2022-11-12T03:28:14.111Z,10.80
2022-11-12T03:31:01.063Z,10.50
2022-11-12T03:33:46.984Z,10.60
2022-11-12T03:36:32.857Z,10.48
2022-11-12T03:39:18.846Z,11.80
2022-11-12T03:42:05.727Z,13.05
2022-11-12T03:44:51.715Z,12.40
2022-11-12T03:50:29.219Z,13.70
2022-11-12T03:53:15.122Z,13.32
2022-11-12T03:58:46.770Z,13.25
2022-11-12T04:01:32.844Z,12.27
2022-11-12T04:04:18.960Z,12.60
2022-11-12T04:07:36.686Z,12.05
2022-11-12T04:10:22.827Z,11.73
2022-11-12T04:13:27.130Z,11.40
2022-11-12T04:16:40.892Z,11.35
2022-11-12T04:19:45.043Z,10.73
2022-11-12T04:22:31.196Z,10.30
2022-11-12T04:25:35.507Z,10.57
2022-11-12T04:28:21.344Z,10.88
2022-11-12T04:31:32.268Z,9.85
2022-11-12T04:34:29.922Z,10.80
2022-11-12T04:37:17.800Z,10.70
2022-11-12T04:40:28.200Z,11.25
2022-11-12T04:43:34.834Z,10.77
2022-11-12T04:46:20.932Z,11.13
2022-11-12T04:49:06.937Z,11.77
2022-11-12T04:52:07.651Z,11.23
2022-11-12T04:54:54.223Z,10.95
2022-11-12T04:57:40.369Z,10.40
2022-11-12T05:00:27.135Z,10.55
2022-11-12T05:03:12.913Z,10.35
2022-11-12T05:06:25.765Z,10.10
2022-11-12T05:09:11.688Z,11.50
2022-11-12T05:11:57.974Z,11.30
2022-11-12T05:14:44.407Z,11.10
2022-11-12T05:17:30.574Z,12.05
2022-11-12T05:20:17.068Z,12.35
2022-11-12T05:23:07.431Z,11.75
2022-11-12T05:25:53.571Z,13.02
2022-11-12T05:28:39.362Z,12.57
2022-11-12T05:31:25.250Z,12.40
2022-11-12T05:34:11.825Z,12.05
2022-11-12T05:36:58.591Z,11.90
2022-11-12T05:39:44.413Z,11.63
2022-11-12T05:42:30.121Z,11.27
2022-11-12T05:45:15.958Z,11.05
2022-11-12T05:48:02.119Z,12.13
2022-11-12T05:54:00.626Z,11.30
2022-11-12T05:56:46.665Z,11.13
2022-11-12T05:59:32.973Z,11.30
2022-11-12T06:02:19.082Z,10.32
2022-11-12T06:05:05.510Z,11.13
2022-11-12T06:07:51.538Z,11.35
2022-11-12T06:10:37.281Z,11.20
2022-11-12T06:13:25.540Z,11.23
2022-11-12T06:16:11.239Z,11.57
2022-11-12T06:18:57.149Z,12.43
2022-11-12T06:21:43.383Z,12.18
2022-11-12T06:24:35.054Z,12.93
2022-11-12T06:27:21.382Z,13.40
2022-11-12T06:30:09.919Z,13.57
2022-11-12T06:32:56.092Z,12.68
2022-11-12T06:35:43.251Z,12.30
2022-11-12T06:38:34.931Z,12.77
2022-11-12T06:41:21.055Z,12.95
2022-11-12T06:46:52.615Z,12.05
2022-11-12T06:52:24.897Z,11.63
2022-11-12T06:57:56.848Z,11.38
2022-11-12T07:00:42.829Z,11.70
2022-11-12T07:03:28.669Z,11.52
2022-11-12T07:06:19.326Z,14.60
2022-11-12T07:09:05.613Z,13.40
2022-11-12T07:11:51.491Z,12.35
2022-11-12T07:14:37.302Z,11.80
2022-11-12T07:17:39.502Z,12.27
2022-11-12T07:20:30.682Z,11.98
2022-11-12T07:23:17.235Z,12.35
2022-11-12T07:26:06.149Z,13.15
2022-11-12T07:28:53.026Z,12.25
2022-11-12T07:31:39.028Z,13.80
2022-11-12T07:34:25.330Z,13.35
2022-11-12T07:37:11.266Z,13.32
2022-11-12T07:39:58.115Z,14.38
2022-11-12T07:42:49.073Z,13.55
2022-11-12T07:45:34.960Z,14.55
2022-11-12T07:48:24.004Z,14.45
2022-11-12T07:51:19.306Z,14.50
2022-11-12T07:54:05.423Z,15.65
2022-11-12T07:56:51.408Z,14.95
2022-11-12T07:59:40.588Z,15.30
2022-11-12T08:02:29.488Z,14.75
2022-11-12T08:05:20.999Z,14.88
2022-11-12T08:08:07.366Z,15.48
2022-11-12T08:10:59.908Z,16.15
2022-11-12T08:13:46.029Z,15.32
2022-11-12T08:16:33.022Z,14.10
2022-11-12T08:19:18.779Z,14.15
2022-11-12T08:24:50.976Z,14.65
2022-11-12T08:27:37.253Z,13.55
2022-11-12T08:30:22.949Z,13.70
2022-11-12T08:33:08.747Z,13.38
2022-11-12T08:35:55.150Z,14.50
2022-11-12T08:41:27.293Z,13.93
2022-11-12T08:46:59.538Z,13.43
2022-11-12T08:49:48.144Z,13.82
2022-11-12T08:52:34.342Z,12.77
2022-11-12T08:58:06.913Z,13.27
2022-11-12T09:00:53.328Z,13.38
2022-11-12T09:03:39.383Z,13.25
2022-11-12T09:06:25.143Z,13.60
2022-11-12T09:11:59.526Z,13.15
2022-11-12T09:14:46.090Z,14.43
2022-11-12T09:17:35.338Z,14.32
2022-11-12T09:20:20.944Z,15.38
2022-11-12T09:23:09.841Z,13.90
2022-11-12T09:25:57.257Z,14.65
2022-11-12T09:28:49.499Z,14.40
2022-11-12T09:31:35.976Z,13.50
2022-11-12T09:34:22.774Z,13.20
2022-11-12T09:37:09.256Z,12.25
2022-11-12T09:42:44.626Z,12.40
2022-11-12T09:45:32.991Z,12.75
2022-11-12T09:48:26.489Z,13.23
2022-11-12T09:51:25.773Z,13.38
2022-11-12T09:54:27.167Z,14.40
2022-11-12T09:57:13.264Z,14.48
2022-11-12T09:59:59.564Z,16.08
2022-11-12T10:03:00.674Z,16.45
2022-11-12T10:05:57.941Z,16.40
2022-11-12T10:08:53.132Z,15.35
2022-11-12T10:12:06.475Z,16.50
2022-11-12T10:15:52.802Z,15.73
2022-11-12T10:19:01.005Z,15.43
2022-11-12T10:22:02.966Z,15.38
2022-11-12T10:24:49.595Z,16.45
2022-11-12T10:27:40.313Z,16.23
2022-11-12T10:30:26.332Z,14.70
2022-11-12T10:33:15.214Z,15.95
2022-11-12T10:36:17.132Z,16.27
2022-11-12T10:39:04.844Z,15.45
2022-11-12T10:42:02.570Z,16.13
2022-11-12T10:44:49.014Z,15.35
2022-11-12T10:47:43.083Z,15.30
2022-11-12T10:50:30.473Z,15.23
2022-11-12T10:53:31.825Z,15.50
2022-11-12T10:56:30.071Z,14.45
2022-11-12T10:59:21.888Z,15.00
2022-11-12T11:02:17.577Z,15.07
2022-11-12T11:05:28.059Z,15.88
2022-11-12T11:08:14.249Z,15.88
2022-11-12T11:11:22.799Z,15.23
2022-11-12T11:14:23.753Z,15.73
2022-11-12T11:17:17.598Z,16.70
2022-11-12T11:20:24.693Z,16.95
2022-11-12T11:23:26.566Z,18.15
2022-11-12T11:26:28.077Z,17.23
2022-11-12T11:29:35.251Z,16.98
2022-11-12T11:33:04.186Z,16.77
2022-11-12T11:35:55.638Z,16.95
2022-11-12T11:39:13.562Z,16.15
2022-11-12T11:42:17.443Z,17.67
2022-11-12T11:45:21.235Z,16.75
2022-11-12T11:48:09.811Z,16.23
2022-11-12T11:51:29.046Z,15.48
2022-11-12T11:55:01.197Z,16.23
2022-11-12T11:58:37.472Z,14.90
2022-11-12T12:02:04.604Z,14.93
2022-11-12T12:04:55.546Z,16.10
2022-11-12T12:08:24.974Z,14.85
2022-11-12T12:11:24.187Z,14.13
2022-11-12T12:14:25.226Z,13.15
2022-11-12T12:17:19.948Z,14.93
2022-11-12T12:20:31.634Z,14.10
2022-11-12T12:23:33.643Z,13.30
2022-11-12T12:26:23.231Z,13.63
2022-11-12T12:29:43.343Z,13.55
2022-11-12T12:32:33.592Z,13.75
2022-11-12T12:35:19.793Z,12.13
2022-11-12T12:38:11.738Z,13.27
2022-11-12T12:41:12.724Z,13.07
2022-11-12T12:44:04.433Z,13.30
2022-11-12T12:46:57.813Z,13.70
2022-11-12T12:49:46.710Z,13.90
2022-11-12T12:53:05.064Z,13.95
2022-11-12T12:56:14.045Z,13.93
2022-11-12T12:59:03.861Z,14.82
2022-11-12T13:01:59.458Z,13.70
2022-11-12T13:04:55.248Z,14.55
2022-11-12T13:07:49.617Z,14.63
2022-11-12T13:10:41.525Z,14.63
2022-11-12T13:13:32.335Z,14.80
2022-11-12T13:16:51.265Z,15.50
2022-11-12T13:20:17.623Z,15.20
2022-11-12T13:23:05.562Z,15.27
2022-11-12T13:25:51.384Z,15.65
2022-11-12T13:29:22.067Z,16.02
2022-11-12T13:32:33.857Z,14.80
2022-11-12T13:35:24.387Z,15.20
2022-11-12T13:38:15.821Z,15.20
2022-11-12T13:41:19.657Z,15.15
2022-11-12T13:44:09.106Z,15.38
2022-11-12T13:46:56.160Z,15.23
2022-11-12T13:49:43.998Z,15.02
2022-11-12T13:52:30.140Z,15.43
2022-11-12T13:55:24.959Z,15.63
2022-11-12T13:58:30.182Z,15.82
2022-11-12T14:01:20.925Z,15.98
2022-11-12T14:04:10.788Z,15.52
2022-11-12T14:07:17.550Z,15.50
2022-11-12T14:10:34.727Z,15.77
2022-11-12T14:16:18.180Z,17.25
2022-11-12T14:19:31.161Z,16.83
2022-11-12T14:22:19.223Z,16.52
2022-11-12T14:25:24.476Z,17.08
2022-11-12T14:28:29.507Z,17.63
2022-11-12T14:31:23.657Z,17.13
2022-11-12T14:34:30.436Z,16.92
2022-11-12T14:37:41.572Z,17.35
2022-11-12T14:40:31.887Z,17.45
2022-11-12T14:43:27.294Z,17.95
2022-11-12T14:46:43.981Z,16.58
2022-11-12T14:49:29.940Z,18.95
2022-11-12T14:52:19.285Z,18.15
2022-11-12T14:55:15.192Z,18.48
2022-11-12T14:58:01.771Z,18.75
2022-11-12T15:00:50.578Z,19.50
2022-11-12T15:03:36.666Z,20.20
2022-11-12T15:09:37.481Z,20.98
2022-11-12T15:12:28.915Z,21.10
2022-11-12T15:15:23.534Z,21.17
2022-11-12T15:18:19.229Z,20.38
2022-11-12T15:21:28.476Z,21.35
2022-11-12T15:24:19.225Z,21.88
2022-11-12T15:27:39.101Z,21.77
2022-11-12T15:30:31.611Z,23.00
2022-11-12T15:33:23.576Z,23.13
2022-11-12T15:36:27.641Z,24.08
2022-11-12T15:39:14.368Z,29.35
2022-11-12T15:42:06.756Z,25.73
2022-11-12T15:44:59.449Z,27.45
2022-11-12T15:47:45.908Z,36.17
2022-11-12T15:50:31.888Z,27.90
2022-11-12T15:53:18.079Z,26.42
2022-11-12T15:56:06.550Z,25.90
2022-11-12T15:58:52.505Z,25.00
2022-11-12T16:01:38.572Z,24.00
2022-11-12T16:04:25.751Z,24.63
2022-11-12T16:07:12.125Z,25.33
2022-11-12T16:12:44.532Z,23.07
2022-11-12T16:15:33.983Z,23.50
2022-11-12T16:18:20.139Z,22.67
2022-11-12T16:21:20.448Z,22.38
2022-11-12T16:24:07.331Z,20.95
2022-11-12T16:26:56.214Z,21.15
2022-11-12T16:29:42.156Z,21.15
2022-11-12T16:32:30.723Z,21.73
2022-11-12T16:35:19.021Z,22.00
2022-11-12T16:38:17.011Z,22.52
2022-11-12T16:41:35.392Z,22.25
2022-11-12T16:44:22.509Z,22.65
2022-11-12T16:47:11.204Z,22.95
2022-11-12T16:49:57.611Z,22.27
2022-11-12T16:52:44.137Z,22.42
2022-11-12T16:55:34.815Z,24.52
2022-11-12T16:58:24.660Z,21.25
2022-11-12T17:01:23.457Z,23.38
2022-11-12T17:04:09.801Z,23.02
2022-11-12T17:06:55.919Z,21.65
2022-11-12T17:09:42.620Z,22.23
2022-11-12T17:12:29.704Z,22.48
2022-11-12T17:15:16.922Z,21.98
2022-11-12T17:18:03.369Z,23.25
2022-11-12T17:20:51.371Z,21.73
2022-11-12T17:23:37.794Z,23.75
2022-11-12T17:26:24.246Z,23.58
2022-11-12T17:29:10.166Z,23.90
2022-11-12T17:34:41.928Z,22.73
2022-11-12T17:40:13.606Z,24.10
2022-11-12T17:45:54.180Z,24.20
2022-11-12T17:48:41.178Z,23.92
2022-11-12T17:51:28.496Z,24.80
2022-11-12T17:54:14.590Z,25.70
2022-11-12T17:57:00.382Z,25.60
2022-11-12T17:59:46.148Z,24.00
2022-11-12T18:02:32.135Z,25.77
2022-11-12T18:05:18.287Z,26.10
2022-11-12T18:08:04.704Z,26.15
2022-11-12T18:10:51.671Z,26.90
2022-11-12T18:13:38.637Z,26.73
2022-11-12T18:16:27.566Z,27.25
2022-11-12T18:19:14.247Z,25.65
2022-11-12T18:22:02.272Z,27.52
2022-11-12T18:24:48.271Z,25.88
2022-11-12T18:27:34.273Z,25.15
2022-11-12T18:30:20.023Z,25.00
2022-11-12T18:33:06.416Z,29.55
2022-11-12T18:36:06.243Z,27.90
2022-11-12T18:38:53.260Z,28.13
2022-11-12T18:41:39.357Z,28.13
2022-11-12T18:44:26.246Z,29.10
2022-11-12T18:47:12.236Z,25.15
2022-11-12T18:53:40.047Z,28.05
2022-11-12T18:56:26.546Z,54.65
2022-11-12T18:59:15.558Z,42.65
2022-11-12T19:02:01.591Z,29.83
2022-11-12T19:04:49.668Z,30.70
2022-11-12T19:07:35.782Z,28.55
2022-11-12T19:10:22.082Z,28.27
2022-11-12T19:13:07.778Z,26.88
2022-11-12T19:15:56.504Z,26.98
2022-11-12T19:18:43.322Z,41.05
2022-11-12T19:21:29.340Z,40.97
2022-11-12T19:24:15.101Z,33.53
2022-11-12T19:27:00.889Z,31.35
2022-11-12T19:29:49.487Z,35.22
2022-11-12T19:32:35.464Z,31.85
2022-11-12T19:35:21.565Z,29.50
2022-11-12T19:38:07.270Z,28.83
2022-11-12T19:40:53.195Z,28.65
2022-11-12T19:43:41.592Z,26.75
2022-11-12T19:46:32.575Z,28.02
2022-11-12T19:49:18.651Z,31.63
2022-11-12T19:52:04.682Z,34.60
2022-11-12T19:54:50.562Z,34.42
2022-11-12T19:57:36.320Z,35.72
2022-11-12T20:03:07.787Z,35.05
2022-11-12T20:06:03.026Z,33.08
2022-11-12T20:08:49.246Z,32.45
2022-11-12T20:11:35.654Z,32.30
2022-11-12T20:14:21.843Z,31.38
2022-11-12T20:17:07.628Z,32.08
2022-11-12T20:19:53.588Z,30.83
2022-11-12T20:25:28.690Z,31.10
2022-11-12T20:28:14.372Z,31.52
2022-11-12T20:31:11.206Z,29.92
2022-11-12T20:33:57.157Z,32.17
2022-11-12T20:36:42.893Z,32.05
2022-11-12T20:39:28.650Z,32.95
2022-11-12T20:42:14.421Z,30.73
2022-11-12T20:45:00.594Z,30.85
2022-11-12T20:47:46.336Z,30.83
2022-11-12T20:53:18.256Z,30.63
2022-11-12T20:56:09.750Z,29.77
2022-11-12T20:58:56.933Z,29.60
2022-11-12T21:01:42.969Z,29.67
2022-11-12T21:07:14.923Z,28.58
2022-11-12T21:10:00.905Z,29.88
2022-11-12T21:15:32.233Z,28.60
2022-11-12T21:18:18.798Z,28.30
2022-11-12T21:21:06.104Z,28.17
2022-11-12T21:23:53.915Z,27.90
2022-11-12T21:26:40.142Z,27.90
2022-11-12T21:29:25.982Z,28.10
2022-11-12T21:32:11.772Z,28.65
2022-11-12T21:34:57.540Z,27.17
2022-11-12T21:37:43.254Z,27.02
2022-11-12T21:40:29.084Z,27.40
2022-11-12T21:46:01.069Z,25.17
2022-11-12T21:48:52.252Z,28.33
2022-11-12T21:51:40.438Z,28.52
2022-11-12T21:54:26.231Z,28.70
2022-11-12T21:57:16.122Z,26.88
2022-11-12T22:00:39.282Z,26.85
2022-11-12T22:03:11.232Z,27.27
2022-11-12T22:08:43.207Z,28.25
2022-11-12T22:11:29.233Z,28.13
2022-11-12T22:17:00.640Z,27.67
2022-11-12T22:19:46.415Z,27.15
2022-11-12T22:22:32.226Z,27.02
2022-11-12T22:25:18.138Z,27.88
2022-11-12T22:30:50.152Z,27.02
2022-11-12T22:33:36.364Z,27.25
2022-11-12T22:36:24.247Z,27.60
2022-11-12T22:39:10.148Z,28.73
2022-11-12T22:41:55.940Z,28.00
2022-11-12T22:47:27.658Z,27.10
2022-11-12T22:50:13.996Z,27.55
2022-11-12T22:53:00.323Z,27.05
2022-11-12T22:58:41.608Z,27.25
2022-11-12T23:05:11.644Z,26.65
2022-11-12T23:07:57.954Z,26.08
2022-11-12T23:10:46.002Z,26.60
2022-11-12T23:13:32.457Z,27.30
2022-11-12T23:16:26.267Z,27.45
2022-11-12T23:19:12.303Z,27.58
2022-11-12T23:21:58.157Z,26.33
2022-11-12T23:24:43.905Z,26.30
2022-11-12T23:30:15.918Z,25.58
2022-11-12T23:33:02.599Z,25.02
2022-11-12T23:35:48.703Z,24.75
2022-11-12T23:38:34.827Z,23.65
2022-11-12T23:41:23.012Z,21.13
2022-11-12T23:44:09.072Z,17.08
2022-11-12T23:46:55.064Z,10.63
2022-11-12T23:49:40.978Z,7.18
2022-11-12T23:55:12.409Z,4.40
2022-11-12T23:57:58.285Z,3.67
